createdAt,value
2019-01-08T00:02:28.941Z,178.53
2019-01-08T00:04:57.851Z,174.07
2019-01-08T00:07:26.939Z,175.67
2019-01-08T00:09:55.884Z,174.80
2019-01-08T00:12:24.819Z,173.90
2019-01-08T00:14:53.798Z,177.43
2019-01-08T00:17:22.854Z,176.27
2019-01-08T00:19:51.903Z,178.63
2019-01-08T00:22:20.735Z,177.13
2019-01-08T00:24:49.838Z,175.77
2019-01-08T00:27:18.820Z,179.40
2019-01-08T00:29:47.653Z,183.63
2019-01-08T00:32:16.599Z,193.47
2019-01-08T00:34:45.720Z,182.83
2019-01-08T00:37:14.738Z,178.43
2019-01-08T00:39:43.642Z,177.97
2019-01-08T00:42:12.731Z,181.27
2019-01-08T00:44:41.743Z,180.67
2019-01-08T00:47:10.661Z,180.57
2019-01-08T00:49:39.741Z,176.40
2019-01-08T00:52:08.724Z,179.67
2019-01-08T00:54:37.632Z,180.03
2019-01-08T00:57:06.328Z,178.67
2019-01-08T00:59:35.256Z,180.23
2019-01-08T01:02:04.188Z,183.23
2019-01-08T01:04:33.090Z,177.30
2019-01-08T01:07:02.078Z,177.43
2019-01-08T01:09:31.033Z,176.03
2019-01-08T01:11:59.900Z,176.43
2019-01-08T01:14:28.847Z,175.33
2019-01-08T01:16:57.815Z,175.37
2019-01-08T01:19:26.870Z,178.53
2019-01-08T01:21:55.901Z,174.37
2019-01-08T01:24:24.715Z,174.90
2019-01-08T01:26:53.582Z,174.10
2019-01-08T01:29:22.544Z,175.57
2019-01-08T01:31:51.511Z,174.97
2019-01-08T01:34:20.427Z,182.17
2019-01-08T01:36:49.426Z,183.20
2019-01-08T01:39:18.311Z,173.63
2019-01-08T01:41:47.196Z,175.40
2019-01-08T01:44:16.081Z,179.07
2019-01-08T01:46:45.058Z,176.67
2019-01-08T01:49:13.891Z,178.10
2019-01-08T01:51:42.752Z,178.70
2019-01-08T01:54:11.557Z,176.30
2019-01-08T01:56:40.404Z,177.47
2019-01-08T01:59:09.272Z,175.37
2019-01-08T02:01:38.213Z,178.10
2019-01-08T02:04:07.091Z,176.77
2019-01-08T02:06:36.060Z,178.67
2019-01-08T02:09:06.232Z,178.67
2019-01-08T02:11:35.073Z,175.83
2019-01-08T02:14:03.999Z,177.33
2019-01-08T02:16:32.834Z,175.47
2019-01-08T02:19:01.702Z,179.27
2019-01-08T02:21:30.606Z,176.67
2019-01-08T02:23:59.534Z,177.40
2019-01-08T02:26:28.398Z,176.67
2019-01-08T02:28:57.283Z,174.23
2019-01-08T02:31:26.174Z,192.40
2019-01-08T02:33:55.069Z,184.93
2019-01-08T02:36:23.974Z,182.77
2019-01-08T02:38:52.829Z,180.83
2019-01-08T02:41:21.777Z,178.20
2019-01-08T02:43:50.995Z,177.30
2019-01-08T02:46:19.973Z,179.17
2019-01-08T02:48:48.735Z,176.00
2019-01-08T02:51:17.700Z,178.20
2019-01-08T02:53:46.467Z,190.03
2019-01-08T02:56:15.307Z,181.40
2019-01-08T02:58:44.268Z,184.97
2019-01-08T03:01:13.142Z,177.50
2019-01-08T03:03:42.056Z,180.53
2019-01-08T03:06:10.824Z,178.70
2019-01-08T03:08:39.771Z,183.17
2019-01-08T03:11:08.602Z,180.43
2019-01-08T03:13:37.466Z,181.10
2019-01-08T03:16:06.431Z,179.37
2019-01-08T03:18:35.230Z,180.57
2019-01-08T03:21:04.112Z,185.60
2019-01-08T03:23:32.955Z,176.07
2019-01-08T03:26:02.000Z,176.13
2019-01-08T03:28:30.875Z,176.10
2019-01-08T03:30:59.625Z,179.07
2019-01-08T03:33:28.538Z,178.23
2019-01-08T03:35:57.535Z,179.40
2019-01-08T03:38:26.363Z,178.23
2019-01-08T03:40:55.240Z,182.17
2019-01-08T03:43:24.251Z,176.93
2019-01-08T03:45:53.119Z,178.73
2019-01-08T03:48:21.931Z,177.80
2019-01-08T03:50:50.895Z,180.47
2019-01-08T03:53:19.801Z,182.87
2019-01-08T03:55:48.660Z,189.13
2019-01-08T03:58:17.528Z,181.03
2019-01-08T04:00:46.684Z,180.00
2019-01-08T04:03:15.597Z,179.80
2019-01-08T04:05:44.428Z,179.40
2019-01-08T04:08:13.319Z,178.13
2019-01-08T04:10:42.131Z,179.80
2019-01-08T04:13:10.941Z,182.07
2019-01-08T04:15:39.890Z,181.67
2019-01-08T04:18:08.657Z,180.90
2019-01-08T04:20:37.501Z,180.87
2019-01-08T04:23:06.393Z,183.67
2019-01-08T04:25:35.386Z,178.37
2019-01-08T04:28:04.333Z,177.93
2019-01-08T04:30:33.204Z,179.53
2019-01-08T04:33:02.129Z,181.37
2019-01-08T04:37:52.845Z,182.37
2019-01-08T04:40:21.753Z,180.67
2019-01-08T04:42:50.648Z,181.37
2019-01-08T04:45:19.473Z,179.83
2019-01-08T04:47:48.272Z,180.90
2019-01-08T04:50:17.234Z,177.33
2019-01-08T04:52:46.198Z,182.90
2019-01-08T04:55:14.984Z,180.43
2019-01-08T04:57:43.963Z,181.57
2019-01-08T05:00:12.827Z,183.70
2019-01-08T05:02:41.742Z,182.03
2019-01-08T05:05:10.644Z,181.33
2019-01-08T05:07:39.588Z,176.40
2019-01-08T05:10:08.511Z,179.70
2019-01-08T05:12:37.276Z,178.10
2019-01-08T05:15:06.510Z,179.43
2019-01-08T05:17:35.345Z,180.80
2019-01-08T05:20:04.240Z,180.73
2019-01-08T05:22:33.171Z,180.20
2019-01-08T05:25:02.014Z,181.43
2019-01-08T05:27:30.874Z,182.87
2019-01-08T05:30:07.524Z,181.17
2019-01-08T05:32:30.296Z,185.80
2019-01-08T05:34:59.267Z,182.50
2019-01-08T05:37:28.096Z,180.70
2019-01-08T05:39:56.963Z,180.60
2019-01-08T05:42:25.925Z,185.37
2019-01-08T05:44:54.798Z,180.27
2019-01-08T05:47:23.653Z,183.83
2019-01-08T05:49:52.647Z,180.40
2019-01-08T05:52:21.585Z,184.60
2019-01-08T05:54:50.451Z,183.80
2019-01-08T05:57:19.308Z,182.63
2019-01-08T05:59:48.189Z,179.60
2019-01-08T06:02:16.985Z,186.53
2019-01-08T06:04:45.920Z,191.93
2019-01-08T06:07:14.896Z,181.23
2019-01-08T06:09:43.733Z,183.57
2019-01-08T06:12:12.505Z,187.93
2019-01-08T06:14:41.281Z,178.80
2019-01-08T06:17:10.121Z,182.17
2019-01-08T06:19:38.996Z,181.70
2019-01-08T06:22:08.068Z,187.70
2019-01-08T06:24:36.903Z,205.23
2019-01-08T06:27:05.659Z,180.17
2019-01-08T06:29:34.534Z,183.57
2019-01-08T06:32:03.475Z,183.53
2019-01-08T06:34:32.294Z,185.87
2019-01-08T06:37:01.183Z,185.47
2019-01-08T06:39:30.119Z,184.07
2019-01-08T06:41:58.891Z,187.57
2019-01-08T06:44:27.839Z,210.67
2019-01-08T06:46:56.747Z,205.37
2019-01-08T06:49:25.737Z,191.47
2019-01-08T06:51:54.610Z,192.87
2019-01-08T06:54:23.358Z,203.80
2019-01-08T06:56:52.242Z,192.60
2019-01-08T06:59:21.174Z,183.57
2019-01-08T07:01:50.004Z,185.13
2019-01-08T07:04:18.826Z,200.67
2019-01-08T07:06:47.718Z,190.07
2019-01-08T07:09:16.559Z,196.67
2019-01-08T07:11:45.499Z,206.57
2019-01-08T07:14:14.374Z,191.57
2019-01-08T07:16:43.256Z,197.00
2019-01-08T07:19:12.291Z,194.60
2019-01-08T07:21:41.273Z,203.20
2019-01-08T07:24:10.172Z,195.77
2019-01-08T07:26:38.939Z,187.67
2019-01-08T07:29:07.845Z,187.70
2019-01-08T07:31:36.790Z,182.70
2019-01-08T07:34:05.647Z,185.30
2019-01-08T07:36:34.507Z,200.13
2019-01-08T07:39:04.551Z,186.90
2019-01-08T07:41:33.358Z,181.17
2019-01-08T07:44:02.321Z,183.30
2019-01-08T07:46:31.286Z,183.70
2019-01-08T07:49:00.170Z,199.13
2019-01-08T07:51:28.947Z,192.53
2019-01-08T07:53:57.721Z,182.97
2019-01-08T07:56:26.597Z,194.73
2019-01-08T07:58:55.556Z,186.90
2019-01-08T08:01:24.349Z,189.53
2019-01-08T08:03:53.300Z,191.33
2019-01-08T08:06:22.255Z,191.07
2019-01-08T08:08:51.075Z,198.13
2019-01-08T08:11:19.915Z,188.83
2019-01-08T08:13:48.780Z,189.13
2019-01-08T08:16:17.635Z,184.13
2019-01-08T08:18:46.590Z,193.87
2019-01-08T08:21:15.560Z,183.10
2019-01-08T08:23:44.363Z,188.37
2019-01-08T08:26:13.111Z,188.43
2019-01-08T08:28:42.106Z,185.83
2019-01-08T08:31:11.045Z,179.33
2019-01-08T08:33:39.894Z,187.50
2019-01-08T08:36:08.750Z,184.47
2019-01-08T08:38:37.624Z,192.07
2019-01-08T08:41:06.379Z,189.37
2019-01-08T08:43:35.267Z,188.40
2019-01-08T08:46:04.144Z,193.07
2019-01-08T08:48:33.098Z,191.87
2019-01-08T08:51:02.085Z,200.37
2019-01-08T08:53:30.898Z,186.53
2019-01-08T08:55:59.723Z,183.83
2019-01-08T08:58:28.588Z,188.30
2019-01-08T09:00:57.358Z,189.17
2019-01-08T09:03:26.317Z,190.37
2019-01-08T09:05:55.267Z,196.80
2019-01-08T09:08:24.108Z,200.20
2019-01-08T09:10:52.986Z,193.63
2019-01-08T09:13:21.863Z,190.63
2019-01-08T09:15:51.396Z,190.87
2019-01-08T09:18:20.230Z,192.27
2019-01-08T09:20:49.216Z,187.67
2019-01-08T09:23:18.109Z,184.43
2019-01-08T09:25:47.012Z,187.73
2019-01-08T09:28:15.858Z,190.17
2019-01-08T09:30:44.645Z,192.63
2019-01-08T09:33:13.518Z,184.50
2019-01-08T09:35:42.432Z,192.63
2019-01-08T09:38:11.441Z,187.37
2019-01-08T09:40:40.355Z,196.23
2019-01-08T09:43:09.200Z,184.90
2019-01-08T09:45:37.964Z,198.23
2019-01-08T09:48:06.920Z,189.60
2019-01-08T09:50:35.875Z,193.67
2019-01-08T09:53:04.669Z,197.70
2019-01-08T09:55:33.541Z,195.47
2019-01-08T09:58:02.442Z,192.67
2019-01-08T10:00:31.212Z,190.67
2019-01-08T10:03:00.095Z,183.73
2019-01-08T10:05:28.989Z,201.80
2019-01-08T10:07:57.769Z,213.52
2019-01-08T10:10:26.617Z,191.93
2019-01-08T10:12:55.553Z,195.73
2019-01-08T10:15:24.412Z,208.10
2019-01-08T10:17:53.439Z,191.80
2019-01-08T10:20:22.301Z,192.43
2019-01-08T10:22:51.156Z,191.07
2019-01-08T10:25:19.937Z,186.70
2019-01-08T10:27:48.946Z,185.23
2019-01-08T10:30:18.028Z,184.93
2019-01-08T10:32:46.838Z,183.07
2019-01-08T10:35:15.756Z,186.67
2019-01-08T10:37:44.703Z,185.37
2019-01-08T10:40:13.432Z,188.73
2019-01-08T10:42:42.249Z,185.80
2019-01-08T10:45:11.204Z,185.70
2019-01-08T10:47:40.099Z,190.50
2019-01-08T10:50:09.041Z,191.07
2019-01-08T10:52:37.951Z,187.00
2019-01-08T10:55:06.869Z,189.53
2019-01-08T10:57:35.655Z,197.97
2019-01-08T11:00:04.712Z,198.03
2019-01-08T11:02:33.603Z,195.17
2019-01-08T11:05:02.555Z,188.43
2019-01-08T11:07:31.403Z,189.37
2019-01-08T11:10:00.168Z,187.10
2019-01-08T11:12:29.114Z,187.63
2019-01-08T11:14:57.927Z,186.10
2019-01-08T11:17:26.820Z,195.07
2019-01-08T11:19:55.760Z,193.13
2019-01-08T11:22:25.366Z,201.40
2019-01-08T11:24:54.147Z,223.23
2019-01-08T11:27:23.098Z,208.23
2019-01-08T11:29:52.051Z,201.83
2019-01-08T11:32:20.890Z,193.63
2019-01-08T11:34:49.929Z,199.60
2019-01-08T11:37:18.736Z,196.17
2019-01-08T11:39:47.511Z,185.07
2019-01-08T11:42:16.387Z,193.87
2019-01-08T11:44:45.353Z,235.27
2019-01-08T11:47:14.224Z,189.53
2019-01-08T11:49:42.969Z,192.00
2019-01-08T11:52:11.822Z,188.17
2019-01-08T11:54:41.378Z,197.70
2019-01-08T11:57:10.575Z,196.40
2019-01-08T11:59:39.647Z,196.23
2019-01-08T12:02:08.910Z,192.83
2019-01-08T12:04:37.938Z,193.47
2019-01-08T12:07:06.976Z,197.17
2019-01-08T12:09:35.846Z,192.67
2019-01-08T12:12:04.791Z,190.60
2019-01-08T12:14:33.801Z,189.63
2019-01-08T12:17:02.899Z,189.67
2019-01-08T12:19:32.100Z,185.93
2019-01-08T12:22:01.139Z,193.93
2019-01-08T12:24:30.182Z,191.30
2019-01-08T12:26:59.251Z,187.53
2019-01-08T12:29:28.176Z,180.47
2019-01-08T12:32:05.612Z,186.83
2019-01-08T12:34:27.869Z,181.20
2019-01-08T12:36:56.889Z,182.93
2019-01-08T12:39:25.825Z,178.47
2019-01-08T12:41:55.203Z,178.80
2019-01-08T12:44:24.275Z,186.40
2019-01-08T12:46:53.345Z,185.33
2019-01-08T12:49:22.330Z,184.03
2019-01-08T12:51:51.404Z,191.60
2019-01-08T12:54:20.388Z,187.33
2019-01-08T12:56:49.398Z,186.10
2019-01-08T12:59:18.303Z,185.20
2019-01-08T13:01:47.272Z,178.77
2019-01-08T13:04:16.341Z,184.20
2019-01-08T13:06:45.408Z,181.47
2019-01-08T13:09:14.532Z,179.73
2019-01-08T13:11:43.407Z,184.83
2019-01-08T13:14:12.463Z,191.77
2019-01-08T13:16:41.387Z,183.83
2019-01-08T13:19:10.302Z,184.63
2019-01-08T13:21:39.301Z,182.70
2019-01-08T13:24:08.233Z,185.77
2019-01-08T13:26:37.303Z,184.60
2019-01-08T13:29:06.288Z,180.50
2019-01-08T13:31:35.110Z,185.80
2019-01-08T13:34:04.120Z,190.53
2019-01-08T13:36:33.082Z,183.10
2019-01-08T13:39:02.032Z,187.53
2019-01-08T13:41:31.024Z,179.50
2019-01-08T13:44:00.056Z,183.73
2019-01-08T13:46:29.049Z,183.70
2019-01-08T13:48:58.106Z,181.73
2019-01-08T13:51:27.166Z,185.43
2019-01-08T13:53:56.188Z,180.67
2019-01-08T13:56:25.198Z,183.60
2019-01-08T13:58:54.154Z,180.87
2019-01-08T14:01:23.089Z,186.10
2019-01-08T14:03:52.071Z,193.27
2019-01-08T14:06:21.097Z,181.53
2019-01-08T14:08:49.972Z,181.70
2019-01-08T14:11:18.958Z,180.93
2019-01-08T14:13:47.953Z,184.00
2019-01-08T14:16:18.060Z,195.33
2019-01-08T15:34:02.016Z,170.40
2019-01-08T15:36:30.938Z,175.53
2019-01-08T15:38:59.986Z,175.90
2019-01-08T15:41:28.826Z,165.63
2019-01-08T15:43:57.690Z,169.37
2019-01-08T15:46:26.700Z,170.43
2019-01-08T15:48:55.609Z,184.63
2019-01-08T15:51:24.456Z,167.27
2019-01-08T15:53:53.353Z,164.27
2019-01-08T15:56:22.197Z,167.37
2019-01-08T15:58:51.083Z,165.07
2019-01-08T16:01:20.065Z,161.67
2019-01-08T16:03:49.124Z,162.30
2019-01-08T16:06:17.954Z,167.17
2019-01-08T16:08:47.162Z,163.27
2019-01-08T16:11:16.139Z,161.33
2019-01-08T16:13:45.073Z,162.67
2019-01-08T16:16:14.115Z,161.63
2019-01-08T16:18:43.085Z,163.13
2019-01-08T16:21:11.901Z,167.47
2019-01-08T16:23:40.957Z,160.77
2019-01-08T16:26:10.014Z,166.30
2019-01-08T16:28:39.205Z,164.07
2019-01-08T16:31:08.130Z,158.93
2019-01-08T16:33:36.983Z,170.10
2019-01-08T16:36:05.883Z,168.67
2019-01-08T16:38:34.773Z,168.30
2019-01-08T16:41:03.631Z,161.93
2019-01-08T16:43:32.386Z,165.53
2019-01-08T16:46:01.518Z,168.07
2019-01-08T16:48:30.451Z,165.83
2019-01-08T16:50:59.381Z,172.43
2019-01-08T16:53:28.367Z,166.90
2019-01-08T16:55:57.383Z,167.67
2019-01-08T16:58:26.357Z,167.73
2019-01-08T17:00:55.344Z,164.83
2019-01-08T17:03:26.482Z,163.57
2019-01-08T17:05:55.073Z,166.30
2019-01-08T17:08:23.876Z,165.47
2019-01-08T17:10:52.818Z,166.57
2019-01-08T17:13:21.664Z,170.57
2019-01-08T17:15:50.702Z,169.93
2019-01-08T17:18:19.764Z,168.53
2019-01-08T17:20:48.696Z,170.60
2019-01-08T17:23:17.484Z,167.90
2019-01-08T17:25:48.093Z,165.87
2019-01-08T17:28:17.406Z,174.97
2019-01-08T17:30:46.352Z,170.97
2019-01-08T17:33:15.313Z,164.70
2019-01-08T17:35:44.284Z,162.47
2019-01-08T17:38:13.184Z,168.83
2019-01-08T17:40:42.076Z,173.23
2019-01-08T17:43:11.018Z,174.77
2019-01-08T17:45:39.992Z,176.63
2019-01-08T17:48:08.956Z,169.53
2019-01-08T17:50:37.788Z,172.47
2019-01-08T17:53:10.154Z,170.00
2019-01-08T17:55:38.983Z,170.40
2019-01-08T17:58:36.019Z,163.47
2019-01-08T18:01:14.057Z,169.30
2019-01-08T18:03:43.239Z,169.73
2019-01-08T18:06:12.346Z,177.50
2019-01-08T18:08:41.233Z,168.80
2019-01-08T18:11:10.156Z,173.70
2019-01-08T18:13:39.143Z,176.20
2019-01-08T18:16:08.287Z,170.67
2019-01-08T18:18:37.449Z,164.07
2019-01-08T18:21:06.326Z,178.13
2019-01-08T18:23:35.437Z,170.03
2019-01-08T18:26:04.673Z,164.93
2019-01-08T18:28:33.762Z,171.80
2019-01-08T18:31:02.711Z,178.17
2019-01-08T18:33:31.644Z,168.67
2019-01-08T18:36:00.617Z,167.30
2019-01-08T18:38:29.450Z,160.43
2019-01-08T18:40:58.382Z,168.60
2019-01-08T18:43:27.284Z,171.57
2019-01-08T18:45:56.443Z,163.13
2019-01-08T18:48:25.342Z,162.87
2019-01-08T18:50:54.141Z,162.63
2019-01-08T18:53:23.075Z,174.30
2019-01-08T18:55:52.063Z,166.57
2019-01-08T18:58:21.020Z,164.87
2019-01-08T19:00:50.541Z,171.77
2019-01-08T19:03:19.925Z,175.23
2019-01-08T19:05:49.139Z,168.53
2019-01-08T19:08:17.999Z,161.80
2019-01-08T19:10:46.940Z,168.40
2019-01-08T19:13:16.032Z,161.90
2019-01-08T19:15:44.911Z,168.10
2019-01-08T19:18:13.841Z,174.77
2019-01-08T19:20:42.784Z,166.63
2019-01-08T19:23:11.669Z,167.63
2019-01-08T19:25:40.594Z,169.13
2019-01-08T19:28:09.509Z,175.70
2019-01-08T19:30:38.378Z,170.97
2019-01-08T19:33:07.327Z,176.03
2019-01-08T19:35:36.276Z,178.10
2019-01-08T19:38:05.172Z,165.77
2019-01-08T19:40:34.049Z,173.70
2019-01-08T19:43:02.819Z,165.70
2019-01-08T19:45:31.810Z,169.60
2019-01-08T19:48:00.771Z,159.57
2019-01-08T19:50:29.758Z,165.70
2019-01-08T19:52:58.642Z,169.37
2019-01-08T19:55:27.590Z,175.93
2019-01-08T19:57:56.704Z,165.83
2019-01-08T20:00:25.732Z,169.70
2019-01-08T20:02:54.703Z,177.10
2019-01-08T20:05:23.668Z,165.07
2019-01-08T20:07:52.711Z,169.23
2019-01-08T20:10:21.628Z,172.10
2019-01-08T20:12:50.618Z,165.23
2019-01-08T20:15:19.490Z,176.40
2019-01-08T20:17:48.600Z,168.17
2019-01-08T20:20:17.425Z,179.30
2019-01-08T20:22:46.443Z,174.87
2019-01-08T20:25:15.495Z,168.57
2019-01-08T20:27:44.543Z,174.10
2019-01-08T20:30:13.590Z,171.53
2019-01-08T20:32:42.578Z,166.47
2019-01-08T20:35:11.494Z,177.87
2019-01-08T20:37:40.393Z,169.23
2019-01-08T20:40:10.095Z,173.20
2019-01-08T20:42:39.079Z,175.53
2019-01-08T20:45:08.009Z,179.37
2019-01-08T20:47:36.942Z,171.93
2019-01-08T20:50:05.916Z,169.47
2019-01-08T20:52:34.896Z,176.07
2019-01-08T20:55:03.761Z,175.33
2019-01-08T20:57:32.494Z,175.67
2019-01-08T21:00:01.518Z,174.50
2019-01-08T21:02:30.388Z,169.33
2019-01-08T21:04:59.289Z,169.40
2019-01-08T21:07:28.177Z,173.33
2019-01-08T21:09:57.113Z,176.10
2019-01-08T21:12:26.050Z,166.07
2019-01-08T21:14:55.092Z,164.57
2019-01-08T21:17:24.057Z,174.50
2019-01-08T21:19:53.011Z,172.30
2019-01-08T21:22:21.938Z,166.67
2019-01-08T21:24:50.941Z,171.20
2019-01-08T21:27:20.026Z,186.83
2019-01-08T21:29:48.831Z,171.57
2019-01-08T21:32:17.908Z,178.90
2019-01-08T21:34:46.733Z,173.07
2019-01-08T21:37:15.610Z,175.17
2019-01-08T21:39:44.580Z,165.73
2019-01-08T21:42:13.561Z,175.30
2019-01-08T21:44:42.435Z,171.07
2019-01-08T21:47:11.324Z,174.93
2019-01-08T21:49:42.176Z,173.10
2019-01-08T21:52:10.921Z,167.50
2019-01-08T21:54:39.894Z,166.10
2019-01-08T21:57:08.820Z,172.20
2019-01-08T21:59:37.614Z,167.00
2019-01-08T22:02:06.613Z,167.03
2019-01-08T22:04:35.480Z,164.93
2019-01-08T22:07:04.293Z,172.07
2019-01-08T22:09:33.320Z,163.53
2019-01-08T22:12:02.262Z,169.33
2019-01-08T22:14:31.249Z,163.83
2019-01-08T22:17:00.278Z,166.40
2019-01-08T22:19:29.265Z,162.87
2019-01-08T22:21:58.113Z,167.83
2019-01-08T22:24:27.140Z,162.63
2019-01-08T22:26:56.031Z,171.30
2019-01-08T22:29:24.908Z,161.57
2019-01-08T22:31:53.861Z,170.63
2019-01-08T22:34:22.689Z,167.87
2019-01-08T22:36:51.595Z,176.27
2019-01-08T22:39:20.670Z,163.90
2019-01-08T22:41:49.857Z,162.83
2019-01-08T22:44:18.964Z,164.37
2019-01-08T22:46:47.954Z,173.87
2019-01-08T22:49:16.962Z,166.83
2019-01-08T22:51:45.967Z,168.20
2019-01-08T22:54:15.039Z,167.10
2019-01-08T22:56:44.152Z,174.93
2019-01-08T22:59:13.117Z,176.13
2019-01-08T23:01:43.456Z,162.50
2019-01-08T23:04:13.251Z,163.63
2019-01-08T23:06:42.041Z,165.07
2019-01-08T23:09:11.305Z,171.50
2019-01-08T23:11:40.261Z,163.50
2019-01-08T23:14:09.178Z,163.00
2019-01-08T23:16:38.102Z,168.57
2019-01-08T23:19:06.958Z,167.93
2019-01-08T23:21:35.802Z,171.97
2019-01-08T23:24:04.700Z,168.07
2019-01-08T23:26:33.590Z,166.43
2019-01-08T23:29:02.367Z,166.53
2019-01-08T23:31:31.213Z,163.50
2019-01-08T23:34:00.059Z,164.57
2019-01-08T23:36:28.889Z,162.60
2019-01-08T23:38:57.750Z,159.43
2019-01-08T23:41:26.798Z,165.13
2019-01-08T23:43:55.591Z,163.80
2019-01-08T23:46:24.451Z,170.53
2019-01-08T23:48:53.291Z,166.13
2019-01-08T23:51:22.078Z,164.50
2019-01-08T23:53:51.329Z,178.10
2019-01-08T23:56:20.307Z,166.70
2019-01-08T23:58:49.264Z,165.47
